sensor_id;sensor_type;location;lat;lon;timestamp;pressure;altitude;pressure_sealevel;temperature
19040;BMP180;9652;49.014;12.052;2023-08-07T00:02:18;97171.00;;;15.80
19040;BMP180;9652;49.014;12.052;2023-08-07T00:04:45;97171.00;;;15.80
19040;BMP180;9652;49.014;12.052;2023-08-07T00:07:12;97178.00;;;15.80
19040;BMP180;9652;49.014;12.052;2023-08-07T00:09:39;97172.00;;;15.80
19040;BMP180;9652;49.014;12.052;2023-08-07T00:12:06;97168.00;;;15.70
19040;BMP180;9652;49.014;12.052;2023-08-07T00:14:33;97182.00;;;15.70
19040;BMP180;9652;49.014;12.052;2023-08-07T00:17:00;97173.00;;;15.70
19040;BMP180;9652;49.014;12.052;2023-08-07T00:19:29;97168.00;;;15.70
19040;BMP180;9652;49.014;12.052;2023-08-07T00:21:56;97173.00;;;15.70
19040;BMP180;9652;49.014;12.052;2023-08-07T00:24:23;97167.00;;;15.70
19040;BMP180;9652;49.014;12.052;2023-08-07T00:26:50;97180.00;;;15.70
19040;BMP180;9652;49.014;12.052;2023-08-07T00:29:17;97170.00;;;15.70
19040;BMP180;9652;49.014;12.052;2023-08-07T00:31:44;97152.00;;;15.70
19040;BMP180;9652;49.014;12.052;2023-08-07T00:34:11;97166.00;;;15.70
19040;BMP180;9652;49.014;12.052;2023-08-07T00:36:40;97172.00;;;15.70
19040;BMP180;9652;49.014;12.052;2023-08-07T00:39:07;97171.00;;;15.70
19040;BMP180;9652;49.014;12.052;2023-08-07T00:41:39;97158.00;;;15.70
19040;BMP180;9652;49.014;12.052;2023-08-07T00:44:06;97165.00;;;15.70
19040;BMP180;9652;49.014;12.052;2023-08-07T00:46:34;97166.00;;;15.70
19040;BMP180;9652;49.014;12.052;2023-08-07T00:49:02;97161.00;;;15.60
19040;BMP180;9652;49.014;12.052;2023-08-07T00:51:30;97125.00;;;15.60
19040;BMP180;9652;49.014;12.052;2023-08-07T00:54:00;97165.00;;;15.70
19040;BMP180;9652;49.014;12.052;2023-08-07T00:56:30;97148.00;;;15.70
19040;BMP180;9652;49.014;12.052;2023-08-07T00:58:58;97172.00;;;15.70
19040;BMP180;9652;49.014;12.052;2023-08-07T01:01:25;97171.00;;;15.60
19040;BMP180;9652;49.014;12.052;2023-08-07T01:03:53;97169.00;;;15.60
19040;BMP180;9652;49.014;12.052;2023-08-07T01:06:20;97160.00;;;15.60
19040;BMP180;9652;49.014;12.052;2023-08-07T01:08:47;97156.00;;;15.60
19040;BMP180;9652;49.014;12.052;2023-08-07T01:11:24;97154.00;;;15.60
19040;BMP180;9652;49.014;12.052;2023-08-07T01:14:02;97166.00;;;15.60
19040;BMP180;9652;49.014;12.052;2023-08-07T01:16:37;97155.00;;;15.60
19040;BMP180;9652;49.014;12.052;2023-08-07T01:19:18;97168.00;;;15.50
19040;BMP180;9652;49.014;12.052;2023-08-07T01:21:48;97179.00;;;15.50
19040;BMP180;9652;49.014;12.052;2023-08-07T01:24:15;97163.00;;;15.50
19040;BMP180;9652;49.014;12.052;2023-08-07T01:26:45;97160.00;;;15.50
19040;BMP180;9652;49.014;12.052;2023-08-07T01:29:22;97168.00;;;15.50
19040;BMP180;9652;49.014;12.052;2023-08-07T01:31:54;97157.00;;;15.50
19040;BMP180;9652;49.014;12.052;2023-08-07T01:34:25;97168.00;;;15.40
19040;BMP180;9652;49.014;12.052;2023-08-07T01:36:54;97158.00;;;15.40
19040;BMP180;9652;49.014;12.052;2023-08-07T01:39:24;97173.00;;;15.40
19040;BMP180;9652;49.014;12.052;2023-08-07T01:41:52;97162.00;;;15.40
19040;BMP180;9652;49.014;12.052;2023-08-07T01:44:19;97169.00;;;15.40
19040;BMP180;9652;49.014;12.052;2023-08-07T01:46:46;97151.00;;;15.40
19040;BMP180;9652;49.014;12.052;2023-08-07T01:49:13;97170.00;;;15.40
19040;BMP180;9652;49.014;12.052;2023-08-07T01:51:40;97164.00;;;15.40
19040;BMP180;9652;49.014;12.052;2023-08-07T01:54:08;97169.00;;;15.40
19040;BMP180;9652;49.014;12.052;2023-08-07T01:56:35;97175.00;;;15.40
19040;BMP180;9652;49.014;12.052;2023-08-07T01:59:02;97163.00;;;15.40
19040;BMP180;9652;49.014;12.052;2023-08-07T02:01:29;97175.00;;;15.40
19040;BMP180;9652;49.014;12.052;2023-08-07T02:03:57;97175.00;;;15.40
19040;BMP180;9652;49.014;12.052;2023-08-07T02:06:25;97176.00;;;15.40
19040;BMP180;9652;49.014;12.052;2023-08-07T02:08:52;97170.00;;;15.40
19040;BMP180;9652;49.014;12.052;2023-08-07T02:11:20;97183.00;;;15.30
19040;BMP180;9652;49.014;12.052;2023-08-07T02:13:48;97175.00;;;15.30
19040;BMP180;9652;49.014;12.052;2023-08-07T02:16:15;97169.00;;;15.30
19040;BMP180;9652;49.014;12.052;2023-08-07T02:18:42;97185.00;;;15.30
19040;BMP180;9652;49.014;12.052;2023-08-07T02:21:09;97186.00;;;15.30
19040;BMP180;9652;49.014;12.052;2023-08-07T02:23:36;97185.00;;;15.30
19040;BMP180;9652;49.014;12.052;2023-08-07T02:26:03;97180.00;;;15.30
19040;BMP180;9652;49.014;12.052;2023-08-07T02:28:31;97187.00;;;15.30
19040;BMP180;9652;49.014;12.052;2023-08-07T02:31:00;97193.00;;;15.30
19040;BMP180;9652;49.014;12.052;2023-08-07T02:33:27;97175.00;;;15.20
19040;BMP180;9652;49.014;12.052;2023-08-07T02:35:56;97125.00;;;15.20
19040;BMP180;9652;49.014;12.052;2023-08-07T02:38:25;97181.00;;;15.20
19040;BMP180;9652;49.014;12.052;2023-08-07T02:40:52;97192.00;;;15.20
19040;BMP180;9652;49.014;12.052;2023-08-07T02:43:19;97189.00;;;15.20
19040;BMP180;9652;49.014;12.052;2023-08-07T02:45:47;97189.00;;;15.20
19040;BMP180;9652;49.014;12.052;2023-08-07T02:48:14;97162.00;;;15.20
19040;BMP180;9652;49.014;12.052;2023-08-07T02:50:43;97183.00;;;15.20
19040;BMP180;9652;49.014;12.052;2023-08-07T02:53:11;97185.00;;;15.10
19040;BMP180;9652;49.014;12.052;2023-08-07T02:55:38;97200.00;;;15.10
19040;BMP180;9652;49.014;12.052;2023-08-07T02:58:05;97206.00;;;15.10
19040;BMP180;9652;49.014;12.052;2023-08-07T03:00:35;97202.00;;;15.10
19040;BMP180;9652;49.014;12.052;2023-08-07T03:03:03;97202.00;;;15.10
19040;BMP180;9652;49.014;12.052;2023-08-07T03:05:30;97208.00;;;15.10
19040;BMP180;9652;49.014;12.052;2023-08-07T03:07:57;97205.00;;;15.10
19040;BMP180;9652;49.014;12.052;2023-08-07T03:10:24;97202.00;;;15.10
19040;BMP180;9652;49.014;12.052;2023-08-07T03:12:51;97202.00;;;15.10
19040;BMP180;9652;49.014;12.052;2023-08-07T03:15:18;97220.00;;;15.00
19040;BMP180;9652;49.014;12.052;2023-08-07T03:17:45;97223.00;;;15.00
19040;BMP180;9652;49.014;12.052;2023-08-07T03:20:14;97217.00;;;15.00
19040;BMP180;9652;49.014;12.052;2023-08-07T03:22:41;97224.00;;;15.00
19040;BMP180;9652;49.014;12.052;2023-08-07T03:25:09;97232.00;;;15.00
19040;BMP180;9652;49.014;12.052;2023-08-07T03:27:37;97213.00;;;15.00
19040;BMP180;9652;49.014;12.052;2023-08-07T03:30:06;97236.00;;;15.00
19040;BMP180;9652;49.014;12.052;2023-08-07T03:32:33;97237.00;;;15.00
19040;BMP180;9652;49.014;12.052;2023-08-07T03:35:00;97234.00;;;14.90
19040;BMP180;9652;49.014;12.052;2023-08-07T03:37:29;97248.00;;;14.90
19040;BMP180;9652;49.014;12.052;2023-08-07T03:39:56;97238.00;;;14.90
19040;BMP180;9652;49.014;12.052;2023-08-07T03:42:24;97221.00;;;14.90
19040;BMP180;9652;49.014;12.052;2023-08-07T03:44:51;97260.00;;;14.90
19040;BMP180;9652;49.014;12.052;2023-08-07T03:47:18;97271.00;;;14.90
19040;BMP180;9652;49.014;12.052;2023-08-07T03:49:45;97269.00;;;14.90
19040;BMP180;9652;49.014;12.052;2023-08-07T03:52:12;97260.00;;;14.90
19040;BMP180;9652;49.014;12.052;2023-08-07T03:54:40;97277.00;;;14.90
19040;BMP180;9652;49.014;12.052;2023-08-07T03:57:08;97272.00;;;14.90
19040;BMP180;9652;49.014;12.052;2023-08-07T03:59:37;97276.00;;;14.80
19040;BMP180;9652;49.014;12.052;2023-08-07T04:02:05;97286.00;;;14.80
19040;BMP180;9652;49.014;12.052;2023-08-07T04:04:32;97268.00;;;14.80
19040;BMP180;9652;49.014;12.052;2023-08-07T04:06:59;97293.00;;;14.80
19040;BMP180;9652;49.014;12.052;2023-08-07T04:09:26;97296.00;;;14.80
19040;BMP180;9652;49.014;12.052;2023-08-07T04:11:55;97309.00;;;14.70
19040;BMP180;9652;49.014;12.052;2023-08-07T04:14:22;97305.00;;;14.70
19040;BMP180;9652;49.014;12.052;2023-08-07T04:16:49;97290.00;;;14.70
19040;BMP180;9652;49.014;12.052;2023-08-07T04:19:16;97301.00;;;14.70
19040;BMP180;9652;49.014;12.052;2023-08-07T04:21:44;97312.00;;;14.70
19040;BMP180;9652;49.014;12.052;2023-08-07T04:24:11;97318.00;;;14.70
19040;BMP180;9652;49.014;12.052;2023-08-07T04:26:38;97319.00;;;14.70
19040;BMP180;9652;49.014;12.052;2023-08-07T04:29:07;97291.00;;;14.70
19040;BMP180;9652;49.014;12.052;2023-08-07T04:31:34;97325.00;;;14.70
19040;BMP180;9652;49.014;12.052;2023-08-07T04:34:01;97321.00;;;14.70
19040;BMP180;9652;49.014;12.052;2023-08-07T04:36:28;97337.00;;;14.70
19040;BMP180;9652;49.014;12.052;2023-08-07T04:38:55;97313.00;;;14.70
19040;BMP180;9652;49.014;12.052;2023-08-07T04:41:22;97331.00;;;14.70
19040;BMP180;9652;49.014;12.052;2023-08-07T04:43:50;97332.00;;;14.70
19040;BMP180;9652;49.014;12.052;2023-08-07T04:46:18;97337.00;;;14.70
19040;BMP180;9652;49.014;12.052;2023-08-07T04:48:45;97345.00;;;14.70
19040;BMP180;9652;49.014;12.052;2023-08-07T04:51:13;97340.00;;;14.70
19040;BMP180;9652;49.014;12.052;2023-08-07T04:53:41;97346.00;;;14.70
19040;BMP180;9652;49.014;12.052;2023-08-07T04:56:08;97343.00;;;14.60
19040;BMP180;9652;49.014;12.052;2023-08-07T04:58:35;97357.00;;;14.60
19040;BMP180;9652;49.014;12.052;2023-08-07T05:01:02;97349.00;;;14.60
19040;BMP180;9652;49.014;12.052;2023-08-07T05:03:31;97352.00;;;14.60
19040;BMP180;9652;49.014;12.052;2023-08-07T05:05:58;97354.00;;;14.60
19040;BMP180;9652;49.014;12.052;2023-08-07T05:08:26;97352.00;;;14.70
19040;BMP180;9652;49.014;12.052;2023-08-07T05:10:53;97349.00;;;14.70
19040;BMP180;9652;49.014;12.052;2023-08-07T05:13:20;97347.00;;;14.70
19040;BMP180;9652;49.014;12.052;2023-08-07T05:15:48;97365.00;;;14.70
19040;BMP180;9652;49.014;12.052;2023-08-07T05:18:16;97362.00;;;14.70
19040;BMP180;9652;49.014;12.052;2023-08-07T05:20:44;97370.00;;;14.70
19040;BMP180;9652;49.014;12.052;2023-08-07T05:23:11;97369.00;;;14.70
19040;BMP180;9652;49.014;12.052;2023-08-07T05:25:38;97375.00;;;14.70
19040;BMP180;9652;49.014;12.052;2023-08-07T05:28:05;97377.00;;;14.70
19040;BMP180;9652;49.014;12.052;2023-08-07T05:30:33;97393.00;;;14.70
19040;BMP180;9652;49.014;12.052;2023-08-07T05:33:00;97385.00;;;14.70
19040;BMP180;9652;49.014;12.052;2023-08-07T05:35:27;97397.00;;;14.70
19040;BMP180;9652;49.014;12.052;2023-08-07T05:37:55;97384.00;;;14.70
19040;BMP180;9652;49.014;12.052;2023-08-07T05:40:22;97393.00;;;14.70
19040;BMP180;9652;49.014;12.052;2023-08-07T05:42:49;97388.00;;;14.70
19040;BMP180;9652;49.014;12.052;2023-08-07T05:45:17;97399.00;;;14.70
19040;BMP180;9652;49.014;12.052;2023-08-07T05:47:44;97405.00;;;14.70
19040;BMP180;9652;49.014;12.052;2023-08-07T05:50:11;97406.00;;;14.70
19040;BMP180;9652;49.014;12.052;2023-08-07T05:52:38;97397.00;;;14.70
19040;BMP180;9652;49.014;12.052;2023-08-07T05:55:07;97410.00;;;14.70
19040;BMP180;9652;49.014;12.052;2023-08-07T05:57:35;97406.00;;;14.70
19040;BMP180;9652;49.014;12.052;2023-08-07T06:00:02;97409.00;;;14.70
19040;BMP180;9652;49.014;12.052;2023-08-07T06:02:37;97417.00;;;14.70
19040;BMP180;9652;49.014;12.052;2023-08-07T06:05:05;97422.00;;;14.70
19040;BMP180;9652;49.014;12.052;2023-08-07T06:07:33;97419.00;;;14.80
19040;BMP180;9652;49.014;12.052;2023-08-07T06:10:00;97427.00;;;14.80
19040;BMP180;9652;49.014;12.052;2023-08-07T06:12:28;97428.00;;;14.80
19040;BMP180;9652;49.014;12.052;2023-08-07T06:14:55;97433.00;;;14.80
19040;BMP180;9652;49.014;12.052;2023-08-07T06:17:22;97440.00;;;14.90
19040;BMP180;9652;49.014;12.052;2023-08-07T06:19:49;97434.00;;;14.90
19040;BMP180;9652;49.014;12.052;2023-08-07T06:22:16;97451.00;;;14.90
19040;BMP180;9652;49.014;12.052;2023-08-07T06:24:43;97453.00;;;14.90
19040;BMP180;9652;49.014;12.052;2023-08-07T06:27:10;97450.00;;;14.90
19040;BMP180;9652;49.014;12.052;2023-08-07T06:29:39;97454.00;;;14.90
19040;BMP180;9652;49.014;12.052;2023-08-07T06:32:07;97444.00;;;14.90
19040;BMP180;9652;49.014;12.052;2023-08-07T06:34:36;97431.00;;;14.90
19040;BMP180;9652;49.014;12.052;2023-08-07T06:37:04;97451.00;;;14.90
19040;BMP180;9652;49.014;12.052;2023-08-07T06:39:32;97465.00;;;14.90
19040;BMP180;9652;49.014;12.052;2023-08-07T06:41:59;97458.00;;;14.90
19040;BMP180;9652;49.014;12.052;2023-08-07T06:44:31;97460.00;;;14.90
19040;BMP180;9652;49.014;12.052;2023-08-07T06:47:00;97470.00;;;14.90
19040;BMP180;9652;49.014;12.052;2023-08-07T06:49:27;97458.00;;;14.90
19040;BMP180;9652;49.014;12.052;2023-08-07T06:51:54;97472.00;;;14.90
19040;BMP180;9652;49.014;12.052;2023-08-07T06:54:22;97475.00;;;14.90
19040;BMP180;9652;49.014;12.052;2023-08-07T06:56:49;97464.00;;;15.00
19040;BMP180;9652;49.014;12.052;2023-08-07T06:59:16;97461.00;;;15.00
19040;BMP180;9652;49.014;12.052;2023-08-07T07:01:43;97466.00;;;15.00
19040;BMP180;9652;49.014;12.052;2023-08-07T07:04:11;97470.00;;;15.00
19040;BMP180;9652;49.014;12.052;2023-08-07T07:06:38;97479.00;;;15.10
19040;BMP180;9652;49.014;12.052;2023-08-07T07:09:05;97471.00;;;15.10
19040;BMP180;9652;49.014;12.052;2023-08-07T07:11:33;97481.00;;;15.10
19040;BMP180;9652;49.014;12.052;2023-08-07T07:14:00;97495.00;;;15.10
19040;BMP180;9652;49.014;12.052;2023-08-07T07:16:27;97494.00;;;15.10
19040;BMP180;9652;49.014;12.052;2023-08-07T07:18:54;97481.00;;;15.20
19040;BMP180;9652;49.014;12.052;2023-08-07T07:21:25;97486.00;;;15.20
19040;BMP180;9652;49.014;12.052;2023-08-07T07:23:52;97492.00;;;15.20
19040;BMP180;9652;49.014;12.052;2023-08-07T07:26:19;97501.00;;;15.20
19040;BMP180;9652;49.014;12.052;2023-08-07T07:28:47;97502.00;;;15.30
19040;BMP180;9652;49.014;12.052;2023-08-07T07:31:14;97491.00;;;15.30
19040;BMP180;9652;49.014;12.052;2023-08-07T07:33:41;97514.00;;;15.30
19040;BMP180;9652;49.014;12.052;2023-08-07T07:36:15;97501.00;;;15.30
19040;BMP180;9652;49.014;12.052;2023-08-07T07:38:46;97521.00;;;15.40
19040;BMP180;9652;49.014;12.052;2023-08-07T07:41:14;97501.00;;;15.30
19040;BMP180;9652;49.014;12.052;2023-08-07T07:43:41;97528.00;;;15.40
19040;BMP180;9652;49.014;12.052;2023-08-07T07:46:08;97522.00;;;15.40
19040;BMP180;9652;49.014;12.052;2023-08-07T07:48:35;97531.00;;;15.50
19040;BMP180;9652;49.014;12.052;2023-08-07T07:51:03;97529.00;;;15.50
19040;BMP180;9652;49.014;12.052;2023-08-07T07:53:31;97547.00;;;15.50
19040;BMP180;9652;49.014;12.052;2023-08-07T07:55:59;97540.00;;;15.50
19040;BMP180;9652;49.014;12.052;2023-08-07T07:58:26;97545.00;;;15.50
19040;BMP180;9652;49.014;12.052;2023-08-07T08:00:53;97548.00;;;15.60
19040;BMP180;9652;49.014;12.052;2023-08-07T08:03:21;97540.00;;;15.60
19040;BMP180;9652;49.014;12.052;2023-08-07T08:05:50;97556.00;;;15.60
19040;BMP180;9652;49.014;12.052;2023-08-07T08:08:18;97557.00;;;15.60
19040;BMP180;9652;49.014;12.052;2023-08-07T08:10:45;97561.00;;;15.60
19040;BMP180;9652;49.014;12.052;2023-08-07T08:13:15;97564.00;;;15.60
19040;BMP180;9652;49.014;12.052;2023-08-07T08:15:43;97570.00;;;15.60
19040;BMP180;9652;49.014;12.052;2023-08-07T08:18:11;97570.00;;;15.60
19040;BMP180;9652;49.014;12.052;2023-08-07T08:20:38;97576.00;;;15.70
19040;BMP180;9652;49.014;12.052;2023-08-07T08:23:05;97570.00;;;15.70
19040;BMP180;9652;49.014;12.052;2023-08-07T08:25:32;97571.00;;;15.70
19040;BMP180;9652;49.014;12.052;2023-08-07T08:28:00;97578.00;;;15.70
19040;BMP180;9652;49.014;12.052;2023-08-07T08:30:29;97584.00;;;15.70
19040;BMP180;9652;49.014;12.052;2023-08-07T08:32:56;97575.00;;;15.70
19040;BMP180;9652;49.014;12.052;2023-08-07T08:35:23;97585.00;;;15.80
19040;BMP180;9652;49.014;12.052;2023-08-07T08:37:50;97585.00;;;15.80
19040;BMP180;9652;49.014;12.052;2023-08-07T08:40:17;97590.00;;;15.90
19040;BMP180;9652;49.014;12.052;2023-08-07T08:42:45;97584.00;;;15.90
19040;BMP180;9652;49.014;12.052;2023-08-07T08:45:14;97592.00;;;16.00
19040;BMP180;9652;49.014;12.052;2023-08-07T08:47:43;97592.00;;;16.00
19040;BMP180;9652;49.014;12.052;2023-08-07T08:50:14;97610.00;;;16.00
19040;BMP180;9652;49.014;12.052;2023-08-07T08:52:43;97606.00;;;16.10
19040;BMP180;9652;49.014;12.052;2023-08-07T08:55:11;97614.00;;;16.20
19040;BMP180;9652;49.014;12.052;2023-08-07T08:57:39;97609.00;;;16.20
19040;BMP180;9652;49.014;12.052;2023-08-07T09:00:09;97613.00;;;16.30
19040;BMP180;9652;49.014;12.052;2023-08-07T09:02:47;97625.00;;;16.30
19040;BMP180;9652;49.014;12.052;2023-08-07T09:05:16;97624.00;;;16.30
19040;BMP180;9652;49.014;12.052;2023-08-07T09:07:43;97626.00;;;16.30
19040;BMP180;9652;49.014;12.052;2023-08-07T09:10:13;97636.00;;;16.30
19040;BMP180;9652;49.014;12.052;2023-08-07T09:12:45;97644.00;;;16.30
19040;BMP180;9652;49.014;12.052;2023-08-07T09:15:15;97649.00;;;16.30
19040;BMP180;9652;49.014;12.052;2023-08-07T09:17:45;97633.00;;;16.30
19040;BMP180;9652;49.014;12.052;2023-08-07T09:20:13;97647.00;;;16.30
19040;BMP180;9652;49.014;12.052;2023-08-07T09:22:41;97643.00;;;16.30
19040;BMP180;9652;49.014;12.052;2023-08-07T09:25:09;97659.00;;;16.30
19040;BMP180;9652;49.014;12.052;2023-08-07T09:27:37;97645.00;;;16.30
19040;BMP180;9652;49.014;12.052;2023-08-07T09:30:06;97665.00;;;16.30
19040;BMP180;9652;49.014;12.052;2023-08-07T09:32:36;97657.00;;;16.20
19040;BMP180;9652;49.014;12.052;2023-08-07T09:35:07;97661.00;;;16.20
19040;BMP180;9652;49.014;12.052;2023-08-07T09:37:36;97659.00;;;16.20
19040;BMP180;9652;49.014;12.052;2023-08-07T09:40:06;97666.00;;;16.20
19040;BMP180;9652;49.014;12.052;2023-08-07T09:42:36;97666.00;;;16.20
19040;BMP180;9652;49.014;12.052;2023-08-07T09:45:20;97661.00;;;16.10
19040;BMP180;9652;49.014;12.052;2023-08-07T09:47:56;97675.00;;;16.10
19040;BMP180;9652;49.014;12.052;2023-08-07T09:50:26;97686.00;;;16.10
19040;BMP180;9652;49.014;12.052;2023-08-07T09:52:55;97666.00;;;16.10
19040;BMP180;9652;49.014;12.052;2023-08-07T09:55:24;97680.00;;;16.10
19040;BMP180;9652;49.014;12.052;2023-08-07T09:57:51;97671.00;;;16.10
19040;BMP180;9652;49.014;12.052;2023-08-07T10:00:19;97691.00;;;16.10
19040;BMP180;9652;49.014;12.052;2023-08-07T10:02:48;97693.00;;;16.10
19040;BMP180;9652;49.014;12.052;2023-08-07T10:05:16;97664.00;;;16.20
19040;BMP180;9652;49.014;12.052;2023-08-07T10:07:46;97691.00;;;16.20
19040;BMP180;9652;49.014;12.052;2023-08-07T10:10:14;97676.00;;;16.20
19040;BMP180;9652;49.014;12.052;2023-08-07T10:12:42;97683.00;;;16.30
19040;BMP180;9652;49.014;12.052;2023-08-07T10:15:11;97686.00;;;16.30
19040;BMP180;9652;49.014;12.052;2023-08-07T10:17:40;97689.00;;;16.40
19040;BMP180;9652;49.014;12.052;2023-08-07T10:20:10;97683.00;;;16.50
19040;BMP180;9652;49.014;12.052;2023-08-07T10:22:39;97694.00;;;16.60
19040;BMP180;9652;49.014;12.052;2023-08-07T10:25:09;97694.00;;;16.60
19040;BMP180;9652;49.014;12.052;2023-08-07T10:27:40;97707.00;;;16.70
19040;BMP180;9652;49.014;12.052;2023-08-07T10:30:11;97690.00;;;16.80
19040;BMP180;9652;49.014;12.052;2023-08-07T10:32:42;97703.00;;;16.90
19040;BMP180;9652;49.014;12.052;2023-08-07T10:35:10;97700.00;;;17.10
19040;BMP180;9652;49.014;12.052;2023-08-07T10:37:52;97699.00;;;17.20
19040;BMP180;9652;49.014;12.052;2023-08-07T10:40:21;97698.00;;;17.40
19040;BMP180;9652;49.014;12.052;2023-08-07T10:42:59;97702.00;;;17.60
19040;BMP180;9652;49.014;12.052;2023-08-07T10:45:28;97709.00;;;17.70
19040;BMP180;9652;49.014;12.052;2023-08-07T10:48:03;97701.00;;;17.90
19040;BMP180;9652;49.014;12.052;2023-08-07T10:50:34;97710.00;;;18.00
19040;BMP180;9652;49.014;12.052;2023-08-07T10:53:02;97700.00;;;18.20
19040;BMP180;9652;49.014;12.052;2023-08-07T10:55:43;97708.00;;;18.20
19040;BMP180;9652;49.014;12.052;2023-08-07T10:58:22;97710.00;;;18.30
19040;BMP180;9652;49.014;12.052;2023-08-07T11:00:51;97710.00;;;18.30
19040;BMP180;9652;49.014;12.052;2023-08-07T11:03:26;97714.00;;;18.40
19040;BMP180;9652;49.014;12.052;2023-08-07T11:05:54;97722.00;;;18.40
19040;BMP180;9652;49.014;12.052;2023-08-07T11:08:24;97711.00;;;18.40
19040;BMP180;9652;49.014;12.052;2023-08-07T11:10:54;97706.00;;;18.40
19040;BMP180;9652;49.014;12.052;2023-08-07T11:13:22;97707.00;;;18.30
19040;BMP180;9652;49.014;12.052;2023-08-07T11:15:49;97708.00;;;18.30
19040;BMP180;9652;49.014;12.052;2023-08-07T11:18:17;97704.00;;;18.40
19040;BMP180;9652;49.014;12.052;2023-08-07T11:20:45;97722.00;;;18.40
19040;BMP180;9652;49.014;12.052;2023-08-07T11:23:12;97702.00;;;18.50
19040;BMP180;9652;49.014;12.052;2023-08-07T11:25:41;97719.00;;;18.60
19040;BMP180;9652;49.014;12.052;2023-08-07T11:28:09;97719.00;;;18.70
19040;BMP180;9652;49.014;12.052;2023-08-07T11:30:37;97723.00;;;18.80
19040;BMP180;9652;49.014;12.052;2023-08-07T11:33:06;97710.00;;;18.90
19040;BMP180;9652;49.014;12.052;2023-08-07T11:35:33;97715.00;;;19.00
19040;BMP180;9652;49.014;12.052;2023-08-07T11:38:00;97722.00;;;19.10
19040;BMP180;9652;49.014;12.052;2023-08-07T11:40:27;97711.00;;;19.10
19040;BMP180;9652;49.014;12.052;2023-08-07T11:42:54;97703.00;;;19.10
19040;BMP180;9652;49.014;12.052;2023-08-07T11:45:23;97714.00;;;19.10
19040;BMP180;9652;49.014;12.052;2023-08-07T11:47:50;97720.00;;;19.10
19040;BMP180;9652;49.014;12.052;2023-08-07T11:50:17;97721.00;;;19.00
19040;BMP180;9652;49.014;12.052;2023-08-07T11:52:45;97722.00;;;19.00
19040;BMP180;9652;49.014;12.052;2023-08-07T11:55:14;97727.00;;;19.10
19040;BMP180;9652;49.014;12.052;2023-08-07T11:57:41;97719.00;;;19.10
19040;BMP180;9652;49.014;12.052;2023-08-07T12:00:12;97728.00;;;19.10
19040;BMP180;9652;49.014;12.052;2023-08-07T12:02:43;97735.00;;;19.10
19040;BMP180;9652;49.014;12.052;2023-08-07T12:05:10;97729.00;;;19.10
19040;BMP180;9652;49.014;12.052;2023-08-07T12:07:38;97735.00;;;19.10
19040;BMP180;9652;49.014;12.052;2023-08-07T12:10:08;97715.00;;;19.10
19040;BMP180;9652;49.014;12.052;2023-08-07T12:12:36;97741.00;;;19.00
19040;BMP180;9652;49.014;12.052;2023-08-07T12:15:07;97745.00;;;19.00
19040;BMP180;9652;49.014;12.052;2023-08-07T12:17:35;97746.00;;;19.00
19040;BMP180;9652;49.014;12.052;2023-08-07T12:20:07;97756.00;;;18.90
19040;BMP180;9652;49.014;12.052;2023-08-07T12:22:36;97753.00;;;18.90
19040;BMP180;9652;49.014;12.052;2023-08-07T12:25:04;97750.00;;;18.80
19040;BMP180;9652;49.014;12.052;2023-08-07T12:27:32;97747.00;;;18.80
19040;BMP180;9652;49.014;12.052;2023-08-07T12:29:59;97725.00;;;18.70
19040;BMP180;9652;49.014;12.052;2023-08-07T12:32:26;97746.00;;;18.70
19040;BMP180;9652;49.014;12.052;2023-08-07T12:34:53;97755.00;;;18.70
19040;BMP180;9652;49.014;12.052;2023-08-07T12:37:21;97736.00;;;18.80
19040;BMP180;9652;49.014;12.052;2023-08-07T12:39:49;97749.00;;;18.80
19040;BMP180;9652;49.014;12.052;2023-08-07T12:42:16;97741.00;;;18.80
19040;BMP180;9652;49.014;12.052;2023-08-07T12:44:43;97756.00;;;18.90
19040;BMP180;9652;49.014;12.052;2023-08-07T12:47:10;97754.00;;;19.20
19040;BMP180;9652;49.014;12.052;2023-08-07T12:49:37;97755.00;;;19.30
19040;BMP180;9652;49.014;12.052;2023-08-07T12:52:05;97758.00;;;19.50
19040;BMP180;9652;49.014;12.052;2023-08-07T12:54:34;97734.00;;;19.70
19040;BMP180;9652;49.014;12.052;2023-08-07T12:57:01;97772.00;;;19.90
19040;BMP180;9652;49.014;12.052;2023-08-07T12:59:28;97760.00;;;20.10
19040;BMP180;9652;49.014;12.052;2023-08-07T13:01:55;97770.00;;;20.30
19040;BMP180;9652;49.014;12.052;2023-08-07T13:04:22;97775.00;;;20.40
19040;BMP180;9652;49.014;12.052;2023-08-07T13:06:50;97757.00;;;20.50
19040;BMP180;9652;49.014;12.052;2023-08-07T13:09:17;97755.00;;;20.60
19040;BMP180;9652;49.014;12.052;2023-08-07T13:11:45;97762.00;;;20.70
19040;BMP180;9652;49.014;12.052;2023-08-07T13:14:12;97774.00;;;20.80
19040;BMP180;9652;49.014;12.052;2023-08-07T13:16:39;97781.00;;;20.80
19040;BMP180;9652;49.014;12.052;2023-08-07T13:19:06;97775.00;;;20.80
19040;BMP180;9652;49.014;12.052;2023-08-07T13:21:33;97790.00;;;20.80
19040;BMP180;9652;49.014;12.052;2023-08-07T13:24:00;97784.00;;;20.90
19040;BMP180;9652;49.014;12.052;2023-08-07T13:26:28;97786.00;;;21.00
19040;BMP180;9652;49.014;12.052;2023-08-07T13:28:56;97794.00;;;21.00
19040;BMP180;9652;49.014;12.052;2023-08-07T13:31:23;97790.00;;;21.00
19040;BMP180;9652;49.014;12.052;2023-08-07T13:33:50;97792.00;;;21.00
19040;BMP180;9652;49.014;12.052;2023-08-07T13:36:17;97792.00;;;20.90
19040;BMP180;9652;49.014;12.052;2023-08-07T13:38:44;97815.00;;;20.90
19040;BMP180;9652;49.014;12.052;2023-08-07T13:41:11;97802.00;;;20.80
19040;BMP180;9652;49.014;12.052;2023-08-07T13:43:38;97814.00;;;20.80
19040;BMP180;9652;49.014;12.052;2023-08-07T13:46:07;97808.00;;;20.90
19040;BMP180;9652;49.014;12.052;2023-08-07T13:48:34;97810.00;;;21.00
19040;BMP180;9652;49.014;12.052;2023-08-07T13:51:01;97779.00;;;21.10
19040;BMP180;9652;49.014;12.052;2023-08-07T13:53:32;97804.00;;;21.10
19040;BMP180;9652;49.014;12.052;2023-08-07T13:56:01;97816.00;;;21.20
19040;BMP180;9652;49.014;12.052;2023-08-07T13:58:28;97808.00;;;21.30
19040;BMP180;9652;49.014;12.052;2023-08-07T14:00:56;97807.00;;;21.30
19040;BMP180;9652;49.014;12.052;2023-08-07T14:03:24;97806.00;;;21.30
19040;BMP180;9652;49.014;12.052;2023-08-07T14:05:51;97819.00;;;21.30
19040;BMP180;9652;49.014;12.052;2023-08-07T14:08:18;97823.00;;;21.30
19040;BMP180;9652;49.014;12.052;2023-08-07T14:10:45;97824.00;;;21.30
19040;BMP180;9652;49.014;12.052;2023-08-07T14:13:12;97832.00;;;21.20
19040;BMP180;9652;49.014;12.052;2023-08-07T14:15:40;97839.00;;;21.20